Terminal Aerodrome Forecast
Issued by NWS Central Illinois

Home | Current Version | Previous Version | Text Only | Print | Product List | Glossary On
Versions: 1 2 3 4 5 6 7 8 9 10 11 12 13 14 15 16 17 18 19 20 21 22 23 24 25 26 27 28 29
793
FTUS43 KILX 241740
TAFSPI
TAF
KSPI 241740Z 2418/2518 28016G26KT P6SM BKN015
     FM242200 26016G26KT P6SM BKN035
     FM250400 29015G23KT P6SM VCSH OVC015
     FM251100 29016G24KT P6SM OVC030=

USA.gov is the U.S. government's official web portal to all federal, state and local government web resources and services.